sensor_id;sensor_type;location;lat;lon;timestamp;P1;durP1;ratioP1;P2;durP2;ratioP2
1995;SDS011;38556;47.068;15.408;2023-03-01T00:01:41;35.20;;;32.10;;
1995;SDS011;38556;47.068;15.408;2023-03-01T00:04:09;33.92;;;30.75;;
1995;SDS011;38556;47.068;15.408;2023-03-01T00:06:36;34.30;;;31.40;;
1995;SDS011;38556;47.068;15.408;2023-03-01T00:09:03;36.38;;;33.08;;
1995;SDS011;38556;47.068;15.408;2023-03-01T00:11:32;36.33;;;33.20;;
1995;SDS011;38556;47.068;15.408;2023-03-01T00:14:00;34.47;;;31.48;;
1995;SDS011;38556;47.068;15.408;2023-03-01T00:16:32;36.30;;;32.90;;
1995;SDS011;38556;47.068;15.408;2023-03-01T00:19:00;36.00;;;32.80;;
1995;SDS011;38556;47.068;15.408;2023-03-01T00:21:27;35.55;;;32.30;;
1995;SDS011;38556;47.068;15.408;2023-03-01T00:23:55;36.38;;;33.17;;
1995;SDS011;38556;47.068;15.408;2023-03-01T00:26:23;37.30;;;33.90;;
1995;SDS011;38556;47.068;15.408;2023-03-01T00:28:52;37.97;;;34.33;;
1995;SDS011;38556;47.068;15.408;2023-03-01T00:31:22;39.08;;;35.38;;
1995;SDS011;38556;47.068;15.408;2023-03-01T00:33:53;36.72;;;33.53;;
1995;SDS011;38556;47.068;15.408;2023-03-01T00:36:23;38.42;;;34.83;;
1995;SDS011;38556;47.068;15.408;2023-03-01T00:38:51;37.42;;;34.25;;
1995;SDS011;38556;47.068;15.408;2023-03-01T00:41:18;35.50;;;32.50;;
1995;SDS011;38556;47.068;15.408;2023-03-01T00:43:48;36.15;;;32.95;;
1995;SDS011;38556;47.068;15.408;2023-03-01T00:46:17;35.38;;;32.08;;
1995;SDS011;38556;47.068;15.408;2023-03-01T00:48:45;36.45;;;33.05;;
1995;SDS011;38556;47.068;15.408;2023-03-01T00:51:15;36.72;;;33.42;;
1995;SDS011;38556;47.068;15.408;2023-03-01T00:53:44;34.75;;;31.80;;
1995;SDS011;38556;47.068;15.408;2023-03-01T00:56:12;35.65;;;32.75;;
1995;SDS011;38556;47.068;15.408;2023-03-01T00:58:41;35.80;;;32.58;;
1995;SDS011;38556;47.068;15.408;2023-03-01T01:01:08;36.55;;;33.35;;
1995;SDS011;38556;47.068;15.408;2023-03-01T01:03:43;36.83;;;33.67;;
1995;SDS011;38556;47.068;15.408;2023-03-01T01:06:17;35.20;;;32.30;;
1995;SDS011;38556;47.068;15.408;2023-03-01T01:08:46;35.50;;;32.50;;
1995;SDS011;38556;47.068;15.408;2023-03-01T01:11:14;36.22;;;33.15;;
1995;SDS011;38556;47.068;15.408;2023-03-01T01:13:41;33.95;;;31.08;;
1995;SDS011;38556;47.068;15.408;2023-03-01T01:16:11;37.40;;;33.95;;
1995;SDS011;38556;47.068;15.408;2023-03-01T01:18:39;36.03;;;32.80;;
1995;SDS011;38556;47.068;15.408;2023-03-01T01:21:08;37.08;;;33.72;;
1995;SDS011;38556;47.068;15.408;2023-03-01T01:23:38;35.88;;;32.58;;
1995;SDS011;38556;47.068;15.408;2023-03-01T01:26:07;37.45;;;34.35;;
1995;SDS011;38556;47.068;15.408;2023-03-01T01:28:36;34.30;;;31.27;;
1995;SDS011;38556;47.068;15.408;2023-03-01T01:31:04;38.10;;;34.67;;
1995;SDS011;38556;47.068;15.408;2023-03-01T01:33:32;37.10;;;33.55;;
1995;SDS011;38556;47.068;15.408;2023-03-01T01:36:00;35.47;;;32.30;;
1995;SDS011;38556;47.068;15.408;2023-03-01T01:38:28;36.10;;;32.80;;
1995;SDS011;38556;47.068;15.408;2023-03-01T01:40:57;35.92;;;32.47;;
1995;SDS011;38556;47.068;15.408;2023-03-01T01:43:25;35.90;;;32.70;;
1995;SDS011;38556;47.068;15.408;2023-03-01T01:45:54;35.25;;;32.15;;
1995;SDS011;38556;47.068;15.408;2023-03-01T01:48:24;35.50;;;32.40;;
1995;SDS011;38556;47.068;15.408;2023-03-01T01:51:05;36.70;;;33.50;;
1995;SDS011;38556;47.068;15.408;2023-03-01T01:53:35;38.17;;;34.50;;
1995;SDS011;38556;47.068;15.408;2023-03-01T01:56:06;35.30;;;32.38;;
1995;SDS011;38556;47.068;15.408;2023-03-01T01:58:36;38.45;;;35.05;;
1995;SDS011;38556;47.068;15.408;2023-03-01T02:01:04;37.03;;;34.00;;
1995;SDS011;38556;47.068;15.408;2023-03-01T02:03:32;36.67;;;33.38;;
1995;SDS011;38556;47.068;15.408;2023-03-01T02:06:11;36.45;;;33.25;;
1995;SDS011;38556;47.068;15.408;2023-03-01T02:08:41;35.95;;;32.65;;
1995;SDS011;38556;47.068;15.408;2023-03-01T02:11:10;37.58;;;34.25;;
1995;SDS011;38556;47.068;15.408;2023-03-01T02:13:41;35.25;;;32.30;;
1995;SDS011;38556;47.068;15.408;2023-03-01T02:16:10;37.97;;;34.45;;
1995;SDS011;38556;47.068;15.408;2023-03-01T02:18:39;36.67;;;33.53;;
1995;SDS011;38556;47.068;15.408;2023-03-01T02:21:10;37.38;;;34.00;;
1995;SDS011;38556;47.068;15.408;2023-03-01T02:23:52;36.38;;;33.30;;
1995;SDS011;38556;47.068;15.408;2023-03-01T02:26:23;37.55;;;34.33;;
1995;SDS011;38556;47.068;15.408;2023-03-01T02:28:58;37.03;;;33.78;;
1995;SDS011;38556;47.068;15.408;2023-03-01T02:31:26;37.05;;;33.63;;
1995;SDS011;38556;47.068;15.408;2023-03-01T02:34:09;37.35;;;34.15;;
1995;SDS011;38556;47.068;15.408;2023-03-01T02:36:41;35.30;;;32.30;;
1995;SDS011;38556;47.068;15.408;2023-03-01T02:39:12;38.33;;;34.88;;
1995;SDS011;38556;47.068;15.408;2023-03-01T02:41:45;36.50;;;33.22;;
1995;SDS011;38556;47.068;15.408;2023-03-01T02:44:15;36.95;;;33.55;;
1995;SDS011;38556;47.068;15.408;2023-03-01T02:46:43;36.92;;;33.85;;
1995;SDS011;38556;47.068;15.408;2023-03-01T02:49:17;37.03;;;33.15;;
1995;SDS011;38556;47.068;15.408;2023-03-01T02:51:48;37.85;;;34.20;;
1995;SDS011;38556;47.068;15.408;2023-03-01T02:54:28;37.03;;;33.67;;
1995;SDS011;38556;47.068;15.408;2023-03-01T02:57:00;36.22;;;33.03;;
1995;SDS011;38556;47.068;15.408;2023-03-01T02:59:30;36.90;;;33.42;;
1995;SDS011;38556;47.068;15.408;2023-03-01T03:02:00;37.42;;;33.78;;
1995;SDS011;38556;47.068;15.408;2023-03-01T03:04:27;37.08;;;33.47;;
1995;SDS011;38556;47.068;15.408;2023-03-01T03:06:55;37.28;;;33.97;;
1995;SDS011;38556;47.068;15.408;2023-03-01T03:09:22;39.33;;;36.00;;
1995;SDS011;38556;47.068;15.408;2023-03-01T03:11:49;39.15;;;35.28;;
1995;SDS011;38556;47.068;15.408;2023-03-01T03:14:16;38.47;;;35.20;;
1995;SDS011;38556;47.068;15.408;2023-03-01T03:16:46;37.17;;;33.92;;
1995;SDS011;38556;47.068;15.408;2023-03-01T03:19:14;36.50;;;33.50;;
1995;SDS011;38556;47.068;15.408;2023-03-01T03:21:42;39.35;;;35.72;;
1995;SDS011;38556;47.068;15.408;2023-03-01T03:24:09;38.15;;;34.58;;
1995;SDS011;38556;47.068;15.408;2023-03-01T03:26:37;38.22;;;34.70;;
1995;SDS011;38556;47.068;15.408;2023-03-01T03:29:04;35.80;;;32.83;;
1995;SDS011;38556;47.068;15.408;2023-03-01T03:31:31;37.25;;;33.85;;
1995;SDS011;38556;47.068;15.408;2023-03-01T03:34:00;37.38;;;34.20;;
1995;SDS011;38556;47.068;15.408;2023-03-01T03:36:27;38.00;;;34.80;;
1995;SDS011;38556;47.068;15.408;2023-03-01T03:38:54;38.63;;;35.20;;
1995;SDS011;38556;47.068;15.408;2023-03-01T03:41:22;36.90;;;33.83;;
1995;SDS011;38556;47.068;15.408;2023-03-01T03:43:49;37.53;;;34.33;;
1995;SDS011;38556;47.068;15.408;2023-03-01T03:46:16;37.13;;;34.03;;
1995;SDS011;38556;47.068;15.408;2023-03-01T03:48:44;37.85;;;34.50;;
1995;SDS011;38556;47.068;15.408;2023-03-01T03:51:14;36.95;;;33.97;;
1995;SDS011;38556;47.068;15.408;2023-03-01T03:53:43;36.72;;;33.65;;
1995;SDS011;38556;47.068;15.408;2023-03-01T03:56:11;36.85;;;33.50;;
1995;SDS011;38556;47.068;15.408;2023-03-01T03:58:38;37.75;;;34.45;;
1995;SDS011;38556;47.068;15.408;2023-03-01T04:01:06;39.28;;;35.67;;
1995;SDS011;38556;47.068;15.408;2023-03-01T04:03:33;39.60;;;36.10;;
1995;SDS011;38556;47.068;15.408;2023-03-01T04:06:01;36.72;;;33.50;;
1995;SDS011;38556;47.068;15.408;2023-03-01T04:08:30;39.38;;;35.97;;
1995;SDS011;38556;47.068;15.408;2023-03-01T04:11:00;38.30;;;34.70;;
1995;SDS011;38556;47.068;15.408;2023-03-01T04:13:49;36.92;;;33.60;;
1995;SDS011;38556;47.068;15.408;2023-03-01T04:16:18;36.28;;;33.05;;
1995;SDS011;38556;47.068;15.408;2023-03-01T04:18:47;36.35;;;33.35;;
1995;SDS011;38556;47.068;15.408;2023-03-01T04:21:14;38.08;;;34.03;;
1995;SDS011;38556;47.068;15.408;2023-03-01T04:23:43;35.28;;;32.22;;
1995;SDS011;38556;47.068;15.408;2023-03-01T04:26:10;36.20;;;32.97;;
1995;SDS011;38556;47.068;15.408;2023-03-01T04:28:38;38.50;;;34.90;;
1995;SDS011;38556;47.068;15.408;2023-03-01T04:31:09;37.10;;;33.80;;
1995;SDS011;38556;47.068;15.408;2023-03-01T04:33:43;34.65;;;31.42;;
1995;SDS011;38556;47.068;15.408;2023-03-01T04:36:12;35.53;;;31.98;;
1995;SDS011;38556;47.068;15.408;2023-03-01T04:38:40;36.85;;;33.63;;
1995;SDS011;38556;47.068;15.408;2023-03-01T04:41:15;37.85;;;34.55;;
1995;SDS011;38556;47.068;15.408;2023-03-01T04:43:43;38.53;;;35.08;;
1995;SDS011;38556;47.068;15.408;2023-03-01T04:46:12;38.17;;;34.88;;
1995;SDS011;38556;47.068;15.408;2023-03-01T04:48:43;38.92;;;34.85;;
1995;SDS011;38556;47.068;15.408;2023-03-01T04:51:12;37.83;;;34.67;;
1995;SDS011;38556;47.068;15.408;2023-03-01T04:53:39;38.08;;;34.65;;
1995;SDS011;38556;47.068;15.408;2023-03-01T04:56:09;38.38;;;34.67;;
1995;SDS011;38556;47.068;15.408;2023-03-01T04:58:37;37.13;;;33.92;;
1995;SDS011;38556;47.068;15.408;2023-03-01T05:01:08;39.55;;;35.92;;
1995;SDS011;38556;47.068;15.408;2023-03-01T05:03:41;38.00;;;34.55;;
1995;SDS011;38556;47.068;15.408;2023-03-01T05:06:09;37.83;;;34.40;;
1995;SDS011;38556;47.068;15.408;2023-03-01T05:08:37;40.63;;;37.05;;
1995;SDS011;38556;47.068;15.408;2023-03-01T05:11:04;38.00;;;34.90;;
1995;SDS011;38556;47.068;15.408;2023-03-01T05:13:36;41.20;;;37.22;;
1995;SDS011;38556;47.068;15.408;2023-03-01T05:16:05;40.15;;;36.35;;
1995;SDS011;38556;47.068;15.408;2023-03-01T05:18:36;38.30;;;34.83;;
1995;SDS011;38556;47.068;15.408;2023-03-01T05:21:04;39.83;;;36.30;;
1995;SDS011;38556;47.068;15.408;2023-03-01T05:23:33;36.65;;;33.65;;
1995;SDS011;38556;47.068;15.408;2023-03-01T05:26:01;40.72;;;36.80;;
1995;SDS011;38556;47.068;15.408;2023-03-01T05:28:30;38.08;;;34.70;;
1995;SDS011;38556;47.068;15.408;2023-03-01T05:31:00;40.50;;;36.78;;
1995;SDS011;38556;47.068;15.408;2023-03-01T05:33:27;41.55;;;37.67;;
1995;SDS011;38556;47.068;15.408;2023-03-01T05:35:54;41.13;;;36.95;;
1995;SDS011;38556;47.068;15.408;2023-03-01T05:38:26;39.40;;;35.90;;
1995;SDS011;38556;47.068;15.408;2023-03-01T05:40:53;39.38;;;36.05;;
1995;SDS011;38556;47.068;15.408;2023-03-01T05:43:21;38.85;;;35.40;;
1995;SDS011;38556;47.068;15.408;2023-03-01T05:45:48;38.67;;;35.42;;
1995;SDS011;38556;47.068;15.408;2023-03-01T05:48:17;38.42;;;34.80;;
1995;SDS011;38556;47.068;15.408;2023-03-01T05:50:44;40.55;;;36.70;;
1995;SDS011;38556;47.068;15.408;2023-03-01T05:53:12;39.28;;;36.00;;
1995;SDS011;38556;47.068;15.408;2023-03-01T05:55:41;36.88;;;33.63;;
1995;SDS011;38556;47.068;15.408;2023-03-01T05:58:12;38.15;;;34.90;;
1995;SDS011;38556;47.068;15.408;2023-03-01T06:00:41;37.67;;;34.30;;
1995;SDS011;38556;47.068;15.408;2023-03-01T06:03:10;38.13;;;34.78;;
1995;SDS011;38556;47.068;15.408;2023-03-01T06:05:40;37.88;;;34.47;;
1995;SDS011;38556;47.068;15.408;2023-03-01T06:08:09;37.42;;;34.42;;
1995;SDS011;38556;47.068;15.408;2023-03-01T06:10:37;44.17;;;35.80;;
1995;SDS011;38556;47.068;15.408;2023-03-01T06:13:04;40.05;;;36.30;;
1995;SDS011;38556;47.068;15.408;2023-03-01T06:18:00;39.00;;;34.90;;
1995;SDS011;38556;47.068;15.408;2023-03-01T06:20:28;39.33;;;36.15;;
1995;SDS011;38556;47.068;15.408;2023-03-01T06:22:56;39.60;;;35.95;;
1995;SDS011;38556;47.068;15.408;2023-03-01T06:25:25;37.33;;;34.13;;
1995;SDS011;38556;47.068;15.408;2023-03-01T06:27:53;37.67;;;34.15;;
1995;SDS011;38556;47.068;15.408;2023-03-01T06:30:21;36.80;;;33.80;;
1995;SDS011;38556;47.068;15.408;2023-03-01T06:32:51;39.03;;;35.63;;
1995;SDS011;38556;47.068;15.408;2023-03-01T06:35:26;37.80;;;34.40;;
1995;SDS011;38556;47.068;15.408;2023-03-01T06:37:57;38.30;;;34.75;;
1995;SDS011;38556;47.068;15.408;2023-03-01T06:40:25;38.17;;;35.05;;
1995;SDS011;38556;47.068;15.408;2023-03-01T06:42:53;37.92;;;34.78;;
1995;SDS011;38556;47.068;15.408;2023-03-01T06:45:20;35.95;;;33.05;;
1995;SDS011;38556;47.068;15.408;2023-03-01T06:47:48;38.40;;;34.88;;
1995;SDS011;38556;47.068;15.408;2023-03-01T06:50:16;37.58;;;34.38;;
1995;SDS011;38556;47.068;15.408;2023-03-01T06:52:44;38.75;;;35.28;;
1995;SDS011;38556;47.068;15.408;2023-03-01T06:55:13;38.95;;;35.50;;
1995;SDS011;38556;47.068;15.408;2023-03-01T06:57:41;37.60;;;34.40;;
1995;SDS011;38556;47.068;15.408;2023-03-01T07:00:08;37.80;;;34.10;;
1995;SDS011;38556;47.068;15.408;2023-03-01T07:02:38;39.50;;;35.88;;
1995;SDS011;38556;47.068;15.408;2023-03-01T07:05:05;38.83;;;34.92;;
1995;SDS011;38556;47.068;15.408;2023-03-01T07:07:33;37.13;;;33.72;;
1995;SDS011;38556;47.068;15.408;2023-03-01T07:10:00;34.85;;;31.75;;
1995;SDS011;38556;47.068;15.408;2023-03-01T07:12:28;36.58;;;33.17;;
1995;SDS011;38556;47.068;15.408;2023-03-01T07:14:56;36.25;;;33.20;;
1995;SDS011;38556;47.068;15.408;2023-03-01T07:17:23;38.55;;;35.00;;
1995;SDS011;38556;47.068;15.408;2023-03-01T07:19:51;34.85;;;32.10;;
1995;SDS011;38556;47.068;15.408;2023-03-01T07:22:18;35.47;;;32.53;;
1995;SDS011;38556;47.068;15.408;2023-03-01T07:24:45;35.50;;;32.70;;
1995;SDS011;38556;47.068;15.408;2023-03-01T07:27:13;34.60;;;31.80;;
1995;SDS011;38556;47.068;15.408;2023-03-01T07:29:41;35.78;;;32.70;;
1995;SDS011;38556;47.068;15.408;2023-03-01T07:32:09;35.17;;;32.15;;
1995;SDS011;38556;47.068;15.408;2023-03-01T07:34:37;36.25;;;33.22;;
1995;SDS011;38556;47.068;15.408;2023-03-01T07:37:04;36.60;;;33.22;;
1995;SDS011;38556;47.068;15.408;2023-03-01T07:39:31;37.70;;;34.00;;
1995;SDS011;38556;47.068;15.408;2023-03-01T07:41:59;35.03;;;32.13;;
1995;SDS011;38556;47.068;15.408;2023-03-01T07:44:26;36.80;;;33.42;;
1995;SDS011;38556;47.068;15.408;2023-03-01T07:46:55;36.13;;;33.03;;
1995;SDS011;38556;47.068;15.408;2023-03-01T07:49:23;36.28;;;33.28;;
1995;SDS011;38556;47.068;15.408;2023-03-01T07:51:52;36.88;;;33.90;;
1995;SDS011;38556;47.068;15.408;2023-03-01T07:54:19;37.20;;;33.83;;
1995;SDS011;38556;47.068;15.408;2023-03-01T07:56:46;35.45;;;32.45;;
1995;SDS011;38556;47.068;15.408;2023-03-01T07:59:13;35.10;;;32.33;;
1995;SDS011;38556;47.068;15.408;2023-03-01T08:01:41;36.05;;;32.90;;
1995;SDS011;38556;47.068;15.408;2023-03-01T08:04:10;35.25;;;32.22;;
1995;SDS011;38556;47.068;15.408;2023-03-01T08:06:37;33.65;;;30.80;;
1995;SDS011;38556;47.068;15.408;2023-03-01T08:09:04;34.45;;;31.45;;
1995;SDS011;38556;47.068;15.408;2023-03-01T08:11:33;35.38;;;32.33;;
1995;SDS011;38556;47.068;15.408;2023-03-01T08:14:00;35.17;;;32.38;;
1995;SDS011;38556;47.068;15.408;2023-03-01T08:16:27;33.00;;;30.20;;
1995;SDS011;38556;47.068;15.408;2023-03-01T08:18:55;34.10;;;31.25;;
1995;SDS011;38556;47.068;15.408;2023-03-01T08:21:27;31.98;;;29.20;;
1995;SDS011;38556;47.068;15.408;2023-03-01T08:23:54;32.20;;;29.60;;
1995;SDS011;38556;47.068;15.408;2023-03-01T08:26:21;31.33;;;28.73;;
1995;SDS011;38556;47.068;15.408;2023-03-01T08:28:49;31.85;;;29.15;;
1995;SDS011;38556;47.068;15.408;2023-03-01T08:31:18;35.10;;;31.75;;
1995;SDS011;38556;47.068;15.408;2023-03-01T08:33:47;33.65;;;30.73;;
1995;SDS011;38556;47.068;15.408;2023-03-01T08:36:20;33.50;;;30.70;;
1995;SDS011;38556;47.068;15.408;2023-03-01T08:38:50;32.47;;;29.65;;
1995;SDS011;38556;47.068;15.408;2023-03-01T08:41:17;33.33;;;30.63;;
1995;SDS011;38556;47.068;15.408;2023-03-01T08:43:45;33.58;;;30.83;;
1995;SDS011;38556;47.068;15.408;2023-03-01T08:46:13;36.10;;;33.00;;
1995;SDS011;38556;47.068;15.408;2023-03-01T08:48:40;34.25;;;31.58;;
1995;SDS011;38556;47.068;15.408;2023-03-01T08:51:08;34.15;;;31.00;;
1995;SDS011;38556;47.068;15.408;2023-03-01T08:53:37;33.83;;;31.02;;
1995;SDS011;38556;47.068;15.408;2023-03-01T08:56:06;35.58;;;32.22;;
1995;SDS011;38556;47.068;15.408;2023-03-01T08:58:34;32.78;;;30.17;;
1995;SDS011;38556;47.068;15.408;2023-03-01T09:01:06;33.70;;;30.70;;
1995;SDS011;38556;47.068;15.408;2023-03-01T09:03:34;33.47;;;30.48;;
1995;SDS011;38556;47.068;15.408;2023-03-01T09:06:02;33.58;;;30.73;;
1995;SDS011;38556;47.068;15.408;2023-03-01T09:08:30;35.20;;;32.10;;
1995;SDS011;38556;47.068;15.408;2023-03-01T09:11:01;34.30;;;31.52;;
1995;SDS011;38556;47.068;15.408;2023-03-01T09:13:30;34.55;;;31.95;;
1995;SDS011;38556;47.068;15.408;2023-03-01T09:15:57;33.88;;;31.30;;
1995;SDS011;38556;47.068;15.408;2023-03-01T09:18:25;35.22;;;32.00;;
1995;SDS011;38556;47.068;15.408;2023-03-01T09:20:52;33.42;;;30.90;;
1995;SDS011;38556;47.068;15.408;2023-03-01T09:23:21;33.83;;;31.10;;
1995;SDS011;38556;47.068;15.408;2023-03-01T09:25:48;34.65;;;31.95;;
1995;SDS011;38556;47.068;15.408;2023-03-01T09:28:15;33.80;;;30.80;;
1995;SDS011;38556;47.068;15.408;2023-03-01T09:30:44;33.50;;;30.77;;
1995;SDS011;38556;47.068;15.408;2023-03-01T09:33:11;33.28;;;30.85;;
1995;SDS011;38556;47.068;15.408;2023-03-01T09:35:40;35.78;;;32.63;;
1995;SDS011;38556;47.068;15.408;2023-03-01T09:38:12;34.58;;;31.77;;
1995;SDS011;38556;47.068;15.408;2023-03-01T09:40:41;34.40;;;31.45;;
1995;SDS011;38556;47.068;15.408;2023-03-01T09:43:15;36.08;;;32.83;;
1995;SDS011;38556;47.068;15.408;2023-03-01T09:45:48;34.30;;;31.58;;
1995;SDS011;38556;47.068;15.408;2023-03-01T09:48:18;36.00;;;32.78;;
1995;SDS011;38556;47.068;15.408;2023-03-01T09:50:49;36.55;;;33.38;;
1995;SDS011;38556;47.068;15.408;2023-03-01T09:53:17;36.85;;;33.75;;
1995;SDS011;38556;47.068;15.408;2023-03-01T09:55:48;38.90;;;35.55;;
1995;SDS011;38556;47.068;15.408;2023-03-01T09:58:38;37.70;;;34.50;;
1995;SDS011;38556;47.068;15.408;2023-03-01T10:04:09;37.55;;;33.95;;
1995;SDS011;38556;47.068;15.408;2023-03-01T10:06:48;34.90;;;31.77;;
1995;SDS011;38556;47.068;15.408;2023-03-01T10:09:21;35.40;;;32.20;;
1995;SDS011;38556;47.068;15.408;2023-03-01T10:11:48;34.40;;;31.27;;
1995;SDS011;38556;47.068;15.408;2023-03-01T10:14:23;34.92;;;32.03;;
1995;SDS011;38556;47.068;15.408;2023-03-01T10:16:58;36.15;;;33.10;;
1995;SDS011;38556;47.068;15.408;2023-03-01T10:19:30;35.22;;;32.30;;
1995;SDS011;38556;47.068;15.408;2023-03-01T10:22:03;35.15;;;31.92;;
1995;SDS011;38556;47.068;15.408;2023-03-01T10:24:37;34.72;;;31.83;;
1995;SDS011;38556;47.068;15.408;2023-03-01T10:27:05;30.52;;;27.73;;
1995;SDS011;38556;47.068;15.408;2023-03-01T10:29:42;34.08;;;31.17;;
1995;SDS011;38556;47.068;15.408;2023-03-01T10:32:14;32.30;;;29.65;;
1995;SDS011;38556;47.068;15.408;2023-03-01T10:34:43;36.45;;;32.83;;
1995;SDS011;38556;47.068;15.408;2023-03-01T10:37:11;35.85;;;32.67;;
1995;SDS011;38556;47.068;15.408;2023-03-01T10:39:54;35.40;;;32.30;;
1995;SDS011;38556;47.068;15.408;2023-03-01T10:42:25;33.28;;;30.48;;
1995;SDS011;38556;47.068;15.408;2023-03-01T10:44:55;36.20;;;33.10;;
1995;SDS011;38556;47.068;15.408;2023-03-01T10:47:26;35.70;;;32.40;;
1995;SDS011;38556;47.068;15.408;2023-03-01T10:49:57;36.47;;;33.42;;
1995;SDS011;38556;47.068;15.408;2023-03-01T10:52:34;36.22;;;33.22;;
1995;SDS011;38556;47.068;15.408;2023-03-01T10:55:04;36.72;;;33.53;;
1995;SDS011;38556;47.068;15.408;2023-03-01T10:57:50;36.70;;;33.30;;
1995;SDS011;38556;47.068;15.408;2023-03-01T11:00:34;35.75;;;32.55;;
1995;SDS011;38556;47.068;15.408;2023-03-01T11:03:16;36.92;;;33.83;;
1995;SDS011;38556;47.068;15.408;2023-03-01T11:05:53;35.70;;;32.55;;
1995;SDS011;38556;47.068;15.408;2023-03-01T11:08:30;36.17;;;32.92;;
1995;SDS011;38556;47.068;15.408;2023-03-01T11:11:14;36.45;;;33.38;;
1995;SDS011;38556;47.068;15.408;2023-03-01T11:13:53;37.80;;;34.13;;
1995;SDS011;38556;47.068;15.408;2023-03-01T11:16:27;35.13;;;31.92;;
1995;SDS011;38556;47.068;15.408;2023-03-01T11:19:00;36.10;;;33.10;;
1995;SDS011;38556;47.068;15.408;2023-03-01T11:21:41;36.28;;;32.72;;
1995;SDS011;38556;47.068;15.408;2023-03-01T11:24:14;35.72;;;32.47;;
1995;SDS011;38556;47.068;15.408;2023-03-01T11:26:44;35.38;;;32.38;;
1995;SDS011;38556;47.068;15.408;2023-03-01T11:29:17;37.03;;;33.65;;
1995;SDS011;38556;47.068;15.408;2023-03-01T11:31:54;36.85;;;33.50;;
1995;SDS011;38556;47.068;15.408;2023-03-01T11:34:27;37.67;;;34.13;;
1995;SDS011;38556;47.068;15.408;2023-03-01T11:37:08;38.15;;;34.72;;
1995;SDS011;38556;47.068;15.408;2023-03-01T11:39:54;37.10;;;33.75;;
1995;SDS011;38556;47.068;15.408;2023-03-01T11:42:37;34.95;;;32.05;;
1995;SDS011;38556;47.068;15.408;2023-03-01T11:45:14;37.00;;;33.75;;
1995;SDS011;38556;47.068;15.408;2023-03-01T11:47:52;37.45;;;33.85;;
1995;SDS011;38556;47.068;15.408;2023-03-01T11:50:35;36.60;;;33.50;;
1995;SDS011;38556;47.068;15.408;2023-03-01T11:53:15;36.60;;;33.35;;
1995;SDS011;38556;47.068;15.408;2023-03-01T11:56:13;37.70;;;34.28;;
1995;SDS011;38556;47.068;15.408;2023-03-01T11:58:54;40.05;;;36.15;;
1995;SDS011;38556;47.068;15.408;2023-03-01T12:01:40;39.38;;;35.88;;
1995;SDS011;38556;47.068;15.408;2023-03-01T12:04:36;36.67;;;33.25;;
1995;SDS011;38556;47.068;15.408;2023-03-01T12:07:39;38.35;;;34.58;;
1995;SDS011;38556;47.068;15.408;2023-03-01T12:13:06;36.30;;;33.05;;
1995;SDS011;38556;47.068;15.408;2023-03-01T12:15:51;38.90;;;35.30;;
1995;SDS011;38556;47.068;15.408;2023-03-01T12:18:44;37.70;;;34.38;;
1995;SDS011;38556;47.068;15.408;2023-03-01T12:21:37;35.72;;;32.72;;
1995;SDS011;38556;47.068;15.408;2023-03-01T12:24:36;36.30;;;33.08;;
1995;SDS011;38556;47.068;15.408;2023-03-01T12:27:25;36.05;;;32.95;;
1995;SDS011;38556;47.068;15.408;2023-03-01T12:30:06;35.25;;;32.20;;
1995;SDS011;38556;47.068;15.408;2023-03-01T12:32:47;36.72;;;33.53;;
1995;SDS011;38556;47.068;15.408;2023-03-01T12:38:32;37.03;;;33.90;;
1995;SDS011;38556;47.068;15.408;2023-03-01T12:41:08;34.85;;;31.85;;
1995;SDS011;38556;47.068;15.408;2023-03-01T12:43:56;36.33;;;32.97;;
1995;SDS011;38556;47.068;15.408;2023-03-01T12:46:36;34.45;;;31.38;;
1995;SDS011;38556;47.068;15.408;2023-03-01T12:49:19;36.55;;;32.85;;
1995;SDS011;38556;47.068;15.408;2023-03-01T12:51:51;34.88;;;31.65;;
1995;SDS011;38556;47.068;15.408;2023-03-01T12:54:24;34.47;;;31.52;;
1995;SDS011;38556;47.068;15.408;2023-03-01T12:56:56;36.47;;;33.47;;
1995;SDS011;38556;47.068;15.408;2023-03-01T12:59:29;35.20;;;32.30;;
1995;SDS011;38556;47.068;15.408;2023-03-01T13:02:03;34.30;;;31.25;;
1995;SDS011;38556;47.068;15.408;2023-03-01T13:04:41;32.22;;;29.77;;
1995;SDS011;38556;47.068;15.408;2023-03-01T13:07:30;32.58;;;29.85;;
1995;SDS011;38556;47.068;15.408;2023-03-01T13:10:06;34.15;;;30.63;;
1995;SDS011;38556;47.068;15.408;2023-03-01T13:12:50;33.92;;;31.08;;
1995;SDS011;38556;47.068;15.408;2023-03-01T13:15:26;31.70;;;28.83;;
1995;SDS011;38556;47.068;15.408;2023-03-01T13:17:57;31.60;;;29.00;;
1995;SDS011;38556;47.068;15.408;2023-03-01T13:20:26;30.88;;;28.30;;
1995;SDS011;38556;47.068;15.408;2023-03-01T13:23:03;37.80;;;34.00;;
1995;SDS011;38556;47.068;15.408;2023-03-01T13:25:33;30.10;;;27.73;;
1995;SDS011;38556;47.068;15.408;2023-03-01T13:31:07;30.85;;;28.38;;
1995;SDS011;38556;47.068;15.408;2023-03-01T13:33:40;29.33;;;26.85;;
1995;SDS011;38556;47.068;15.408;2023-03-01T13:36:09;29.80;;;27.60;;
1995;SDS011;38556;47.068;15.408;2023-03-01T13:38:44;30.65;;;28.15;;
1995;SDS011;38556;47.068;15.408;2023-03-01T13:41:13;32.97;;;30.25;;
1995;SDS011;38556;47.068;15.408;2023-03-01T13:43:43;32.08;;;29.33;;
1995;SDS011;38556;47.068;15.408;2023-03-01T13:46:15;30.52;;;28.35;;
1995;SDS011;38556;47.068;15.408;2023-03-01T13:48:45;32.50;;;29.55;;
1995;SDS011;38556;47.068;15.408;2023-03-01T13:51:19;29.75;;;27.55;;
1995;SDS011;38556;47.068;15.408;2023-03-01T13:53:50;32.13;;;29.45;;
1995;SDS011;38556;47.068;15.408;2023-03-01T13:56:19;30.17;;;27.80;;
1995;SDS011;38556;47.068;15.408;2023-03-01T13:58:53;31.10;;;28.60;;
1995;SDS011;38556;47.068;15.408;2023-03-01T14:01:24;31.83;;;29.08;;
1995;SDS011;38556;47.068;15.408;2023-03-01T14:03:54;32.60;;;30.10;;
1995;SDS011;38556;47.068;15.408;2023-03-01T14:06:23;33.65;;;30.95;;
1995;SDS011;38556;47.068;15.408;2023-03-01T14:08:52;30.98;;;28.48;;
1995;SDS011;38556;47.068;15.408;2023-03-01T14:11:35;33.88;;;30.92;;
1995;SDS011;38556;47.068;15.408;2023-03-01T14:14:36;31.85;;;29.27;;
1995;SDS011;38556;47.068;15.408;2023-03-01T14:17:17;33.55;;;30.80;;
1995;SDS011;38556;47.068;15.408;2023-03-01T14:20:02;32.22;;;29.38;;
1995;SDS011;38556;47.068;15.408;2023-03-01T14:22:35;33.63;;;30.77;;
1995;SDS011;38556;47.068;15.408;2023-03-01T14:25:16;33.63;;;30.58;;
1995;SDS011;38556;47.068;15.408;2023-03-01T14:27:50;31.95;;;29.45;;
1995;SDS011;38556;47.068;15.408;2023-03-01T14:30:23;30.80;;;28.20;;
1995;SDS011;38556;47.068;15.408;2023-03-01T14:32:54;30.92;;;28.33;;
1995;SDS011;38556;47.068;15.408;2023-03-01T14:35:25;32.10;;;29.35;;
1995;SDS011;38556;47.068;15.408;2023-03-01T14:37:53;31.10;;;28.40;;
1995;SDS011;38556;47.068;15.408;2023-03-01T14:40:23;30.70;;;27.67;;
1995;SDS011;38556;47.068;15.408;2023-03-01T14:42:52;31.75;;;28.65;;
1995;SDS011;38556;47.068;15.408;2023-03-01T14:45:22;30.20;;;27.85;;
1995;SDS011;38556;47.068;15.408;2023-03-01T14:47:51;29.75;;;27.30;;
1995;SDS011;38556;47.068;15.408;2023-03-01T14:50:21;29.80;;;27.50;;
1995;SDS011;38556;47.068;15.408;2023-03-01T14:52:51;31.20;;;28.63;;
1995;SDS011;38556;47.068;15.408;2023-03-01T14:55:23;31.42;;;29.27;;
1995;SDS011;38556;47.068;15.408;2023-03-01T14:57:55;29.88;;;27.48;;
1995;SDS011;38556;47.068;15.408;2023-03-01T15:00:26;30.67;;;27.98;;